Time;durP1;ratioP1;P1;durP2;ratioP2;P2;SDS_P1;SDS_P2;PMS_P1;PMS_P2;Temp;Humidity;BMP_temperature;BMP_pressure;BME280_temperature;BME280_humidity;BME280_pressure;Samples;Min_cycle;Max_cycle;Signal;HPM_P1;HPM_P2
2022/05/28 00:00:43;;;;;;;36.75;4.57;;;;;;;;;;5013998;28;20432;-74
2022/05/28 00:03:09;;;;;;;29.05;4.00;;;;;;;;;;5013701;28;20069;-72
2022/05/28 00:05:34;;;;;;;40.30;4.28;;;;;;;;;;5013217;28;20022;-72
2022/05/28 00:08:01;;;;;;;30.70;4.45;;;;;;;;;;5012839;28;20026;-73
2022/05/28 00:10:27;;;;;;;20.17;2.95;;;;;;;;;;5012693;28;20050;-72
2022/05/28 00:12:54;;;;;;;21.55;2.78;;;;;;;;;;5012671;28;20041;-72
2022/05/28 00:15:20;;;;;;;29.83;3.55;;;;;;;;;;5012214;28;20026;-72
2022/05/28 00:17:47;;;;;;;29.55;3.47;;;;;;;;;;5012673;28;20525;-72
2022/05/28 00:20:13;;;;;;;21.02;2.67;;;;;;;;;;5012753;28;20025;-72
2022/05/28 00:22:40;;;;;;;17.25;3.05;;;;;;;;;;5021147;28;20030;-73
2022/05/28 00:25:06;;;;;;;18.77;2.45;;;;;;;;;;5021225;28;20022;-73
2022/05/28 00:27:32;;;;;;;11.43;2.08;;;;;;;;;;5024580;28;20025;-73
2022/05/28 00:29:58;;;;;;;19.88;2.60;;;;;;;;;;5026025;28;20510;-73
2022/05/28 00:32:24;;;;;;;20.67;3.13;;;;;;;;;;5010490;28;20099;-73
2022/05/28 00:34:50;;;;;;;17.65;2.60;;;;;;;;;;5027399;28;20402;-73
2022/05/28 00:37:16;;;;;;;19.02;2.95;;;;;;;;;;5016591;28;20034;-72
2022/05/28 00:39:42;;;;;;;11.93;2.10;;;;;;;;;;5016035;28;20028;-73
2022/05/28 00:42:08;;;;;;;13.68;2.10;;;;;;;;;;5015753;28;20106;-73
2022/05/28 00:44:34;;;;;;;17.05;2.47;;;;;;;;;;5015592;28;20029;-72
2022/05/28 00:47:00;;;;;;;14.77;2.75;;;;;;;;;;5015485;28;20387;-72
2022/05/28 00:49:29;;;;;;;16.92;2.65;;;;;;;;;;5015669;28;20052;-73
2022/05/28 00:51:56;;;;;;;18.80;2.95;;;;;;;;;;5015463;28;20030;-71
2022/05/28 00:54:22;;;;;;;22.27;3.45;;;;;;;;;;5015509;28;20026;-72
2022/05/28 00:56:48;;;;;;;13.90;2.38;;;;;;;;;;5015107;28;20356;-71
2022/05/28 00:59:15;;;;;;;17.40;2.45;;;;;;;;;;4997607;28;20040;-73
2022/05/28 01:01:41;;;;;;;22.02;3.50;;;;;;;;;;5014997;28;20041;-73
2022/05/28 01:04:32;;;;;;;17.67;2.55;;;;;;;;;;5015219;28;20030;-73
2022/05/28 01:07:01;;;;;;;19.30;2.53;;;;;;;;;;5014114;28;20105;-73
2022/05/28 01:09:39;;;;;;;19.98;3.05;;;;;;;;;;5014877;28;20487;-73
2022/05/28 01:12:12;;;;;;;28.15;3.40;;;;;;;;;;5014934;28;20105;-72
2022/05/28 01:14:38;;;;;;;19.27;2.97;;;;;;;;;;5015146;28;20026;-73
2022/05/28 01:17:13;;;;;;;18.23;2.38;;;;;;;;;;4997149;28;20236;-73
2022/05/28 01:19:53;;;;;;;24.10;3.20;;;;;;;;;;5014811;28;20025;-72
2022/05/28 01:22:30;;;;;;;17.52;2.65;;;;;;;;;;5015011;28;20026;-72
2022/05/28 01:25:17;;;;;;;13.70;2.58;;;;;;;;;;5015108;28;20475;-72
2022/05/28 01:27:46;;;;;;;13.40;2.42;;;;;;;;;;5014717;28;20483;-72
2022/05/28 01:30:13;;;;;;;18.20;2.60;;;;;;;;;;5015272;28;20018;-74
2022/05/28 01:32:40;;;;;;;16.13;3.00;;;;;;;;;;5014659;28;20026;-72
2022/05/28 01:35:08;;;;;;;15.55;2.22;;;;;;;;;;5014711;28;20026;-72
2022/05/28 01:37:34;;;;;;;13.52;2.20;;;;;;;;;;5014249;28;20088;-71
2022/05/28 01:40:02;;;;;;;16.88;2.72;;;;;;;;;;5014868;28;20029;-72
2022/05/28 01:42:29;;;;;;;15.57;2.33;;;;;;;;;;5014594;28;20394;-71
2022/05/28 01:44:55;;;;;;;8.80;2.10;;;;;;;;;;5014372;28;20044;-72
2022/05/28 01:47:22;;;;;;;9.82;1.83;;;;;;;;;;5014577;28;20487;-72
2022/05/28 01:49:48;;;;;;;15.23;2.42;;;;;;;;;;5014286;28;20037;-71
2022/05/28 01:52:15;;;;;;;11.35;2.00;;;;;;;;;;5013959;28;20040;-72
2022/05/28 01:54:43;;;;;;;7.47;1.73;;;;;;;;;;5014306;28;20401;-72
2022/05/28 01:57:09;;;;;;;10.80;1.90;;;;;;;;;;5013967;28;20079;-71
2022/05/28 01:59:35;;;;;;;13.05;2.00;;;;;;;;;;4996383;28;20384;-71
2022/05/28 02:02:03;;;;;;;11.25;1.60;;;;;;;;;;5013833;28;20018;-71
2022/05/28 02:04:32;;;;;;;10.55;2.13;;;;;;;;;;5014076;28;20104;-72
2022/05/28 02:06:58;;;;;;;16.35;2.13;;;;;;;;;;5012913;28;20053;-72
2022/05/28 02:09:30;;;;;;;17.65;2.50;;;;;;;;;;5019273;28;20483;-72
2022/05/28 02:12:08;;;;;;;11.05;1.92;;;;;;;;;;5016995;28;20494;-72
2022/05/28 02:14:51;;;;;;;8.68;1.80;;;;;;;;;;5014263;28;20030;-71
2022/05/28 02:17:22;;;;;;;10.15;2.05;;;;;;;;;;4996109;28;20033;-72
2022/05/28 02:20:07;;;;;;;18.15;3.00;;;;;;;;;;5013803;28;20022;-71
2022/05/28 02:22:33;;;;;;;15.35;2.00;;;;;;;;;;5013846;28;20044;-71
2022/05/28 02:25:01;;;;;;;17.42;2.30;;;;;;;;;;5013785;28;20510;-71
2022/05/28 02:27:29;;;;;;;17.88;2.08;;;;;;;;;;5013919;28;20030;-72
2022/05/28 02:29:54;;;;;;;12.88;1.90;;;;;;;;;;5013862;28;20025;-70
2022/05/28 02:32:25;;;;;;;22.23;2.47;;;;;;;;;;5013929;28;20449;-71
2022/05/28 02:34:51;;;;;;;18.60;2.47;;;;;;;;;;5034928;23;20399;-76
2022/05/28 02:37:19;;;;;;;12.40;1.85;;;;;;;;;;5012580;28;20034;-76
2022/05/28 02:39:45;;;;;;;12.30;2.33;;;;;;;;;;5013420;28;20049;-76
2022/05/28 02:42:11;;;;;;;16.83;2.22;;;;;;;;;;5006031;28;20021;-76
2022/05/28 02:44:37;;;;;;;15.73;2.50;;;;;;;;;;5032961;28;20030;-76
2022/05/28 02:47:03;;;;;;;17.55;2.60;;;;;;;;;;5033305;28;20010;-77
2022/05/28 02:49:30;;;;;;;15.48;2.47;;;;;;;;;;5017548;28;20048;-76
2022/05/28 02:51:55;;;;;;;20.30;2.72;;;;;;;;;;5033739;28;20018;-74
2022/05/28 02:54:22;;;;;;;16.42;2.28;;;;;;;;;;5028382;28;20493;-77
2022/05/28 02:56:48;;;;;;;21.80;2.47;;;;;;;;;;5028666;28;20040;-75
2022/05/28 02:59:14;;;;;;;21.85;2.88;;;;;;;;;;5031651;28;20022;-76
2022/05/28 03:01:40;;;;;;;15.57;2.60;;;;;;;;;;5029808;28;20022;-76
2022/05/28 03:04:07;;;;;;;16.50;2.40;;;;;;;;;;5032585;28;20044;-75
2022/05/28 03:06:35;;;;;;;22.00;2.70;;;;;;;;;;5030721;28;20026;-76
2022/05/28 03:09:01;;;;;;;29.88;3.58;;;;;;;;;;5031954;28;20030;-76
2022/05/28 03:11:27;;;;;;;18.10;2.75;;;;;;;;;;5032722;28;20044;-76
2022/05/28 03:13:53;;;;;;;23.55;2.85;;;;;;;;;;5035118;28;20081;-77
2022/05/28 03:16:19;;;;;;;18.52;2.78;;;;;;;;;;5033252;28;20029;-76
2022/05/28 03:18:45;;;;;;;22.23;3.75;;;;;;;;;;5033809;28;20025;-76
2022/05/28 03:21:11;;;;;;;25.98;3.15;;;;;;;;;;5035513;28;20101;-76
2022/05/28 03:23:37;;;;;;;18.42;2.97;;;;;;;;;;5035927;28;20026;-77
2022/05/28 03:26:23;;;;;;;15.43;2.63;;;;;;;;;;5035157;28;20034;-77
2022/05/28 03:28:49;;;;;;;31.63;4.40;;;;;;;;;;5017955;28;20025;-77
2022/05/28 03:31:15;;;;;;;25.77;3.67;;;;;;;;;;5014240;28;20078;-75
2022/05/28 03:33:41;;;;;;;24.92;3.78;;;;;;;;;;5013453;28;20387;-78
2022/05/28 03:36:07;;;;;;;38.70;3.75;;;;;;;;;;5014564;28;20030;-78
2022/05/28 03:38:33;;;;;;;33.22;3.85;;;;;;;;;;5013668;28;20038;-77
2022/05/28 03:40:59;;;;;;;23.50;3.65;;;;;;;;;;5014160;28;20018;-77
2022/05/28 03:43:28;;;;;;;20.20;3.20;;;;;;;;;;5018173;28;20030;-78
2022/05/28 03:45:55;;;;;;;21.48;2.85;;;;;;;;;;5036902;28;20065;-78
2022/05/28 03:48:21;;;;;;;23.88;4.00;;;;;;;;;;5017399;28;20037;-77
2022/05/28 03:50:47;;;;;;;19.55;2.80;;;;;;;;;;5012486;28;20100;-77
2022/05/28 03:53:15;;;;;;;22.65;3.03;;;;;;;;;;5013823;28;20030;-78
2022/05/28 03:55:41;;;;;;;23.95;3.10;;;;;;;;;;5012335;28;20018;-76
2022/05/28 03:58:07;;;;;;;21.30;2.88;;;;;;;;;;5012251;28;20165;-76
2022/05/28 04:00:33;;;;;;;23.70;3.03;;;;;;;;;;5012385;28;20510;-75
2022/05/28 04:03:00;;;;;;;17.52;2.58;;;;;;;;;;4995572;28;20084;-76
2022/05/28 04:05:26;;;;;;;23.45;3.40;;;;;;;;;;5017024;28;20030;-76
2022/05/28 04:07:52;;;;;;;19.40;2.92;;;;;;;;;;5035438;28;20061;-78
2022/05/28 04:10:18;;;;;;;21.42;2.60;;;;;;;;;;4999170;28;20517;-76
2022/05/28 04:12:44;;;;;;;24.40;3.35;;;;;;;;;;5015692;28;20034;-77
2022/05/28 04:15:11;;;;;;;18.15;2.80;;;;;;;;;;5015869;28;20045;-76
2022/05/28 04:17:37;;;;;;;22.15;2.65;;;;;;;;;;5015873;28;20030;-76
2022/05/28 04:20:04;;;;;;;25.63;3.10;;;;;;;;;;5020145;28;20033;-77
2022/05/28 04:22:30;;;;;;;31.15;4.10;;;;;;;;;;5016214;28;20030;-77
2022/05/28 04:24:56;;;;;;;23.42;3.30;;;;;;;;;;5022507;28;20037;-76
2022/05/28 04:27:22;;;;;;;26.52;4.03;;;;;;;;;;5016846;28;20029;-77
2022/05/28 04:29:48;;;;;;;26.20;3.50;;;;;;;;;;5008518;28;20022;-77
2022/05/28 04:32:14;;;;;;;25.98;3.92;;;;;;;;;;5015565;28;20029;-77
2022/05/28 04:34:40;;;;;;;33.45;3.55;;;;;;;;;;5015375;28;20120;-77
2022/05/28 04:37:06;;;;;;;25.23;3.78;;;;;;;;;;5016160;28;20072;-77
2022/05/28 04:39:32;;;;;;;38.28;4.35;;;;;;;;;;5015916;28;20018;-77
2022/05/28 04:41:58;;;;;;;36.35;4.70;;;;;;;;;;4998132;28;20032;-76
2022/05/28 04:44:24;;;;;;;24.95;3.65;;;;;;;;;;5015758;28;20049;-76
2022/05/28 04:46:50;;;;;;;25.05;3.60;;;;;;;;;;5015353;28;20095;-77
2022/05/28 04:49:16;;;;;;;37.38;4.22;;;;;;;;;;5015554;28;20026;-76
2022/05/28 04:51:42;;;;;;;25.35;3.42;;;;;;;;;;5015651;28;20033;-77
2022/05/28 04:54:08;;;;;;;27.30;3.70;;;;;;;;;;4997809;28;20470;-76
2022/05/28 04:56:34;;;;;;;28.75;4.13;;;;;;;;;;5014933;28;20065;-76
2022/05/28 04:59:00;;;;;;;26.30;3.47;;;;;;;;;;5014778;28;20026;-75
2022/05/28 05:01:26;;;;;;;23.70;3.80;;;;;;;;;;5014838;28;20026;-75
2022/05/28 05:03:52;;;;;;;20.88;3.15;;;;;;;;;;5014649;28;20105;-75
2022/05/28 05:06:18;;;;;;;25.92;4.38;;;;;;;;;;5014686;28;20064;-76
2022/05/28 05:08:44;;;;;;;27.02;4.32;;;;;;;;;;5014852;28;20026;-78
2022/05/28 05:11:10;;;;;;;22.88;3.40;;;;;;;;;;5014592;28;20026;-75
2022/05/28 05:13:36;;;;;;;30.25;4.18;;;;;;;;;;5014819;28;20072;-78
2022/05/28 05:16:07;;;;;;;27.98;3.65;;;;;;;;;;5014071;28;20030;-75
2022/05/28 05:18:33;;;;;;;33.22;3.85;;;;;;;;;;5014827;28;20026;-77
2022/05/28 05:20:59;;;;;;;23.63;3.67;;;;;;;;;;5015337;28;20387;-74
2022/05/28 05:23:25;;;;;;;22.17;4.68;;;;;;;;;;5014333;28;20368;-76
2022/05/28 05:25:51;;;;;;;26.15;3.47;;;;;;;;;;5014353;28;20030;-78
2022/05/28 05:28:17;;;;;;;30.08;3.70;;;;;;;;;;5014401;28;20044;-75
2022/05/28 05:30:43;;;;;;;31.80;4.63;;;;;;;;;;4997420;28;20030;-76
2022/05/28 05:33:09;;;;;;;27.00;3.88;;;;;;;;;;5014583;28;20030;-77
2022/05/28 05:35:35;;;;;;;21.33;3.88;;;;;;;;;;5014699;28;20072;-76
2022/05/28 05:38:05;;;;;;;20.40;3.20;;;;;;;;;;5013906;28;20030;-75
2022/05/28 05:40:31;;;;;;;32.63;3.83;;;;;;;;;;5014843;28;20030;-76
2022/05/28 05:42:58;;;;;;;24.42;3.30;;;;;;;;;;5014163;28;20026;-75
2022/05/28 05:45:24;;;;;;;23.50;3.90;;;;;;;;;;5014365;28;20360;-75
2022/05/28 05:47:50;;;;;;;23.33;3.60;;;;;;;;;;4997398;28;20037;-75
2022/05/28 05:50:16;;;;;;;19.38;3.20;;;;;;;;;;5014582;28;20022;-76
2022/05/28 05:52:42;;;;;;;24.20;3.20;;;;;;;;;;5018261;28;20033;-76
2022/05/28 05:55:08;;;;;;;21.52;3.25;;;;;;;;;;5000334;28;20132;-76
2022/05/28 05:57:34;;;;;;;25.13;3.60;;;;;;;;;;5016517;28;20041;-77
2022/05/28 06:00:00;;;;;;;19.08;2.92;;;;;;;;;;4997355;28;20022;-76
2022/05/28 06:02:26;;;;;;;19.13;2.80;;;;;;;;;;5015578;28;20049;-77
2022/05/28 06:04:53;;;;;;;20.25;3.15;;;;;;;;;;5017699;28;20021;-75
2022/05/28 06:07:19;;;;;;;28.27;4.22;;;;;;;;;;5001904;28;20441;-76
2022/05/28 06:09:45;;;;;;;21.80;3.63;;;;;;;;;;5002263;28;20112;-76
2022/05/28 06:12:11;;;;;;;18.38;3.03;;;;;;;;;;5016191;28;20026;-77
2022/05/28 06:14:37;;;;;;;19.33;3.13;;;;;;;;;;5033333;28;20058;-76
2022/05/28 06:17:03;;;;;;;21.55;3.50;;;;;;;;;;5038590;28;20076;-78
2022/05/28 06:19:29;;;;;;;20.05;3.20;;;;;;;;;;5026800;28;20524;-76
2022/05/28 06:21:57;;;;;;;25.92;3.08;;;;;;;;;;5018470;28;20113;-76
2022/05/28 06:24:23;;;;;;;27.33;3.10;;;;;;;;;;5015669;28;20068;-76
2022/05/28 06:26:49;;;;;;;14.30;3.08;;;;;;;;;;5013808;28;20104;-77
2022/05/28 06:29:15;;;;;;;24.05;3.78;;;;;;;;;;5018058;28;20073;-77
2022/05/28 06:31:41;;;;;;;22.13;3.35;;;;;;;;;;5015831;28;20538;-73
2022/05/28 06:34:07;;;;;;;26.50;3.70;;;;;;;;;;5030349;28;20072;-74
2022/05/28 06:36:33;;;;;;;32.90;5.07;;;;;;;;;;5016256;28;20030;-77
2022/05/28 06:38:59;;;;;;;27.52;3.75;;;;;;;;;;5012992;28;20082;-76
2022/05/28 06:41:25;;;;;;;22.58;3.78;;;;;;;;;;5013014;28;20026;-75
2022/05/28 06:43:52;;;;;;;29.45;3.70;;;;;;;;;;5014850;28;20391;-75
2022/05/28 06:46:18;;;;;;;38.05;4.93;;;;;;;;;;5012857;28;20032;-75
2022/05/28 06:48:44;;;;;;;30.80;4.00;;;;;;;;;;5012850;28;20034;-75
2022/05/28 06:51:10;;;;;;;21.10;3.80;;;;;;;;;;5012582;28;20153;-76
2022/05/28 06:53:38;;;;;;;29.05;4.47;;;;;;;;;;5013080;28;20022;-77
2022/05/28 06:56:05;;;;;;;36.67;4.82;;;;;;;;;;5013019;28;20030;-76
2022/05/28 06:58:31;;;;;;;26.38;4.25;;;;;;;;;;5012770;28;20036;-75
2022/05/28 07:00:57;;;;;;;35.50;4.00;;;;;;;;;;5014168;28;20395;-75
2022/05/28 07:03:25;;;;;;;27.35;4.07;;;;;;;;;;4996296;28;20024;-77
2022/05/28 07:05:51;;;;;;;26.80;3.53;;;;;;;;;;5012399;28;20073;-76
2022/05/28 07:08:18;;;;;;;30.63;3.67;;;;;;;;;;5012666;28;20030;-75
2022/05/28 07:10:45;;;;;;;27.60;4.35;;;;;;;;;;5012955;28;20113;-75
2022/05/28 07:13:11;;;;;;;23.55;3.90;;;;;;;;;;5012553;28;20029;-77
2022/05/28 07:15:37;;;;;;;24.55;3.85;;;;;;;;;;5012299;28;20030;-75
2022/05/28 07:18:04;;;;;;;23.75;4.43;;;;;;;;;;5012814;28;20082;-77
2022/05/28 07:20:30;;;;;;;28.83;4.50;;;;;;;;;;4994717;28;20029;-76
2022/05/28 07:22:56;;;;;;;27.63;4.50;;;;;;;;;;5012384;28;20033;-76
2022/05/28 07:25:22;;;;;;;26.92;4.45;;;;;;;;;;4995078;28;20018;-76
2022/05/28 07:27:48;;;;;;;27.88;4.05;;;;;;;;;;5012219;28;20479;-76
2022/05/28 07:30:14;;;;;;;23.90;4.30;;;;;;;;;;5012201;28;20057;-76
2022/05/28 07:32:40;;;;;;;25.48;3.70;;;;;;;;;;5012416;28;20061;-75
2022/05/28 07:35:06;;;;;;;21.38;3.65;;;;;;;;;;5012590;28;20033;-75
2022/05/28 07:37:32;;;;;;;30.65;4.32;;;;;;;;;;5012066;28;20076;-76
2022/05/28 07:39:59;;;;;;;30.48;4.50;;;;;;;;;;5017191;28;20021;-75
2022/05/28 07:42:27;;;;;;;23.30;3.50;;;;;;;;;;4999117;28;20018;-76
2022/05/28 07:44:52;;;;;;;15.75;2.85;;;;;;;;;;5017532;28;20033;-77
2022/05/28 07:47:18;;;;;;;17.38;3.63;;;;;;;;;;5001967;28;20029;-80
2022/05/28 07:49:45;;;;;;;20.20;3.10;;;;;;;;;;5019250;28;20026;-77
2022/05/28 07:52:11;;;;;;;18.38;3.33;;;;;;;;;;5018009;28;20030;-73
2022/05/28 07:54:37;;;;;;;24.85;4.22;;;;;;;;;;5000740;28;20034;-75
2022/05/28 07:57:03;;;;;;;27.33;4.93;;;;;;;;;;5019012;28;20494;-76
2022/05/28 07:59:29;;;;;;;22.42;3.60;;;;;;;;;;5015151;28;20037;-78
2022/05/28 08:01:56;;;;;;;28.65;4.30;;;;;;;;;;5024208;28;20203;-76
2022/05/28 08:04:22;;;;;;;26.00;3.95;;;;;;;;;;5017342;28;20030;-75
2022/05/28 08:06:48;;;;;;;34.83;4.63;;;;;;;;;;5016114;28;20105;-77
2022/05/28 08:09:14;;;;;;;35.45;4.13;;;;;;;;;;5015820;28;20018;-76
2022/05/28 08:11:40;;;;;;;25.38;3.42;;;;;;;;;;5015907;28;20052;-77
2022/05/28 08:14:07;;;;;;;24.80;3.90;;;;;;;;;;5016183;28;20021;-76
2022/05/28 08:16:33;;;;;;;27.88;3.97;;;;;;;;;;5016091;28;20114;-76
2022/05/28 08:18:59;;;;;;;23.88;3.63;;;;;;;;;;5016388;28;20033;-76
2022/05/28 08:24:10;;;;;;;34.78;4.70;;;;;;;;;;5017617;28;20041;-76
2022/05/28 08:26:38;;;;;;;20.88;3.47;;;;;;;;;;4999607;28;20022;-76
2022/05/28 08:29:04;;;;;;;23.85;3.70;;;;;;;;;;5017946;28;20022;-76
2022/05/28 08:31:30;;;;;;;26.27;3.58;;;;;;;;;;5021116;28;20034;-76
2022/05/28 08:33:56;;;;;;;23.20;4.18;;;;;;;;;;5019130;23;20133;-74
2022/05/28 08:36:22;;;;;;;20.45;4.75;;;;;;;;;;4999619;28;20364;-74
2022/05/28 08:38:48;;;;;;;25.75;4.75;;;;;;;;;;4997491;28;20033;-75
2022/05/28 08:41:18;;;;;;;33.45;4.25;;;;;;;;;;4996951;28;20026;-75
2022/05/28 08:43:49;;;;;;;33.10;4.22;;;;;;;;;;4996758;28;20022;-75
2022/05/28 08:46:16;;;;;;;41.83;4.93;;;;;;;;;;4996516;28;20125;-75
2022/05/28 08:48:47;;;;;;;31.10;4.95;;;;;;;;;;4997156;28;20519;-75
2022/05/28 08:51:17;;;;;;;32.80;4.22;;;;;;;;;;4995833;28;20029;-74
2022/05/28 08:53:45;;;;;;;24.10;4.03;;;;;;;;;;5004372;28;20033;-75
2022/05/28 08:56:15;;;;;;;17.17;2.88;;;;;;;;;;5007190;28;20097;-74
2022/05/28 08:58:41;;;;;;;25.58;4.05;;;;;;;;;;4997447;28;20085;-74
2022/05/28 09:01:10;;;;;;;20.48;3.55;;;;;;;;;;4996250;28;20026;-74
2022/05/28 09:03:43;;;;;;;24.25;3.40;;;;;;;;;;4995938;28;20023;-74
2022/05/28 09:06:23;;;;;;;29.15;3.85;;;;;;;;;;4996389;28;20022;-74
2022/05/28 09:08:53;;;;;;;20.13;3.80;;;;;;;;;;4979963;28;20041;-74
2022/05/28 09:11:37;;;;;;;23.13;3.72;;;;;;;;;;4985292;28;20038;-73
2022/05/28 09:14:09;;;;;;;19.77;3.30;;;;;;;;;;5014650;28;20030;-72
2022/05/28 09:16:36;;;;;;;20.73;3.22;;;;;;;;;;5018215;28;20182;-74
2022/05/28 09:19:05;;;;;;;24.30;3.95;;;;;;;;;;5017866;28;20034;-72
2022/05/28 09:21:31;;;;;;;28.33;4.90;;;;;;;;;;5014026;28;20018;-72
2022/05/28 09:24:06;;;;;;;25.27;4.00;;;;;;;;;;5012897;28;20023;-73
2022/05/28 09:26:34;;;;;;;29.70;3.83;;;;;;;;;;5013403;28;20040;-78
2022/05/28 09:29:18;;;;;;;31.02;4.43;;;;;;;;;;5009062;28;20097;-74
2022/05/28 09:31:44;;;;;;;27.42;4.22;;;;;;;;;;4996169;28;20038;-74
2022/05/28 09:34:31;;;;;;;23.73;4.18;;;;;;;;;;4996067;28;20097;-73
2022/05/28 09:37:12;;;;;;;26.27;4.15;;;;;;;;;;4995405;28;20033;-73
2022/05/28 09:39:41;;;;;;;29.63;4.53;;;;;;;;;;4996091;28;20106;-73
2022/05/28 09:42:13;;;;;;;26.20;4.05;;;;;;;;;;4996259;28;20019;-73
2022/05/28 09:44:42;;;;;;;23.60;3.55;;;;;;;;;;4995775;28;20085;-72
2022/05/28 09:47:13;;;;;;;24.13;3.67;;;;;;;;;;4978049;28;20472;-74
2022/05/28 09:49:49;;;;;;;34.53;4.57;;;;;;;;;;4996299;28;20031;-74
2022/05/28 09:52:21;;;;;;;24.25;4.32;;;;;;;;;;4998208;28;20023;-73
2022/05/28 09:54:47;;;;;;;22.98;4.55;;;;;;;;;;5001950;28;20057;-73
2022/05/28 09:57:27;;;;;;;27.80;4.25;;;;;;;;;;4999412;28;20216;-74
2022/05/28 09:59:55;;;;;;;29.23;3.63;;;;;;;;;;4998501;28;20030;-74
2022/05/28 10:02:26;;;;;;;22.38;3.55;;;;;;;;;;4985685;28;20085;-74
2022/05/28 10:04:52;;;;;;;25.52;3.55;;;;;;;;;;5003526;28;20018;-73
2022/05/28 10:07:35;;;;;;;29.05;4.07;;;;;;;;;;5004961;28;20042;-75
2022/05/28 10:10:01;;;;;;;27.40;2.95;;;;;;;;;;4994504;28;20037;-73
2022/05/28 10:12:29;;;;;;;17.02;2.95;;;;;;;;;;4999729;28;20058;-74
2022/05/28 10:15:00;;;;;;;29.83;4.35;;;;;;;;;;5000239;28;20039;-74
2022/05/28 10:17:26;;;;;;;41.85;4.13;;;;;;;;;;4996638;28;20040;-73
2022/05/28 10:19:54;;;;;;;20.48;3.00;;;;;;;;;;4995807;28;20050;-73
2022/05/28 10:22:22;;;;;;;27.85;3.58;;;;;;;;;;4978679;28;20546;-73
2022/05/28 10:24:53;;;;;;;20.23;3.00;;;;;;;;;;4996160;28;20499;-73
2022/05/28 10:27:24;;;;;;;19.70;4.03;;;;;;;;;;4981936;28;20030;-73
2022/05/28 10:29:50;;;;;;;17.80;3.30;;;;;;;;;;4997157;28;20058;-74
2022/05/28 10:32:42;;;;;;;22.88;4.10;;;;;;;;;;4995412;28;20026;-74
2022/05/28 10:35:13;;;;;;;32.22;3.97;;;;;;;;;;4996050;28;20050;-73
2022/05/28 10:37:40;;;;;;;21.63;4.03;;;;;;;;;;5011066;28;20073;-73
2022/05/28 10:40:11;;;;;;;21.38;3.75;;;;;;;;;;4979993;28;20420;-72
2022/05/28 10:42:37;;;;;;;33.72;4.97;;;;;;;;;;5002178;28;20026;-72
2022/05/28 10:45:03;;;;;;;29.60;4.55;;;;;;;;;;4999782;28;20391;-74
2022/05/28 10:47:59;;;;;;;42.40;5.55;;;;;;;;;;4998490;28;20132;-73
2022/05/28 10:50:31;;;;;;;25.20;5.40;;;;;;;;;;4979766;28;20483;-74
2022/05/28 10:52:56;;;;;;;39.30;4.15;;;;;;;;;;5001916;28;20039;-74
2022/05/28 10:55:29;;;;;;;30.65;4.72;;;;;;;;;;5002367;28;20034;-75
2022/05/28 10:58:02;;;;;;;16.52;3.38;;;;;;;;;;4994614;28;20056;-74
2022/05/28 11:00:54;;;;;;;22.75;3.97;;;;;;;;;;4994369;28;20026;-75
2022/05/28 11:03:39;;;;;;;38.95;4.03;;;;;;;;;;4966051;28;20039;-74
2022/05/28 11:06:04;;;;;;;26.48;4.00;;;;;;;;;;4993652;28;20027;-74
2022/05/28 11:08:49;;;;;;;29.85;4.57;;;;;;;;;;4993880;28;20494;-74
2022/05/28 11:11:24;;;;;;;37.22;4.93;;;;;;;;;;4994099;28;20022;-72
2022/05/28 11:14:09;;;;;;;37.70;4.78;;;;;;;;;;4975777;28;20031;-73
2022/05/28 11:16:37;;;;;;;31.17;5.10;;;;;;;;;;4999374;28;20034;-73
2022/05/28 11:19:02;;;;;;;36.25;5.55;;;;;;;;;;4996530;28;20058;-73
2022/05/28 11:21:45;;;;;;;30.65;4.30;;;;;;;;;;4994334;28;20031;-75
2022/05/28 11:24:23;;;;;;;35.03;5.72;;;;;;;;;;4980251;28;20042;-73
2022/05/28 11:27:15;;;;;;;30.50;4.50;;;;;;;;;;4996341;28;20031;-73
2022/05/28 11:29:47;;;;;;;36.95;5.43;;;;;;;;;;4973015;28;20128;-73
2022/05/28 11:32:17;;;;;;;30.90;4.80;;;;;;;;;;5000374;28;20069;-75
2022/05/28 11:34:48;;;;;;;31.58;5.30;;;;;;;;;;4993316;28;20069;-74
2022/05/28 11:37:18;;;;;;;32.92;7.28;;;;;;;;;;4993989;28;20061;-74
2022/05/28 11:39:44;;;;;;;37.08;5.03;;;;;;;;;;4993585;28;20073;-74
2022/05/28 11:42:10;;;;;;;34.70;5.68;;;;;;;;;;4993379;28;20472;-74
2022/05/28 11:44:42;;;;;;;31.40;5.32;;;;;;;;;;4994058;28;20022;-75
2022/05/28 11:47:27;;;;;;;38.97;5.75;;;;;;;;;;4995502;28;20034;-75
2022/05/28 11:52:40;;;;;;;34.80;5.70;;;;;;;;;;4993365;28;20402;-74
2022/05/28 11:55:10;;;;;;;37.85;5.40;;;;;;;;;;4976167;28;20042;-74
2022/05/28 11:57:39;;;;;;;35.35;5.78;;;;;;;;;;4993774;28;20026;-74
2022/05/28 12:00:07;;;;;;;38.70;5.78;;;;;;;;;;4976788;28;20774;-73
2022/05/28 12:02:35;;;;;;;36.60;6.35;;;;;;;;;;4994338;28;20058;-73
2022/05/28 12:05:01;;;;;;;30.83;6.30;;;;;;;;;;4976754;28;20102;-74
2022/05/28 12:07:34;;;;;;;34.17;5.80;;;;;;;;;;4993668;28;20035;-74
2022/05/28 12:10:00;;;;;;;28.23;4.45;;;;;;;;;;4994823;28;20022;-74
2022/05/28 12:12:35;;;;;;;24.27;4.57;;;;;;;;;;4980891;28;20031;-74
2022/05/28 12:15:04;;;;;;;33.08;5.20;;;;;;;;;;5017184;28;20018;-75
2022/05/28 12:17:31;;;;;;;27.48;4.93;;;;;;;;;;5017231;28;20045;-76
2022/05/28 12:19:59;;;;;;;25.52;5.00;;;;;;;;;;5014665;28;20027;-73
2022/05/28 12:22:39;;;;;;;26.13;4.07;;;;;;;;;;5001627;28;20030;-73
2022/05/28 12:25:11;;;;;;;23.30;3.88;;;;;;;;;;4999122;28;20018;-73
2022/05/28 12:27:37;;;;;;;24.88;3.65;;;;;;;;;;5000577;28;20065;-74
2022/05/28 12:30:08;;;;;;;22.73;3.67;;;;;;;;;;5005286;28;20054;-74
2022/05/28 12:32:45;;;;;;;28.88;3.60;;;;;;;;;;4998061;28;20035;-74
2022/05/28 12:35:20;;;;;;;14.95;2.70;;;;;;;;;;4997849;28;20186;-73
2022/05/28 12:37:49;;;;;;;19.65;3.35;;;;;;;;;;4981370;28;20023;-73
2022/05/28 12:40:21;;;;;;;18.52;2.63;;;;;;;;;;4998482;28;20119;-73
2022/05/28 12:42:47;;;;;;;14.88;2.83;;;;;;;;;;4985762;28;20043;-73
2022/05/28 12:45:19;;;;;;;17.83;3.00;;;;;;;;;;5005341;28;20038;-75
2022/05/28 12:47:46;;;;;;;19.85;3.13;;;;;;;;;;4985843;28;20027;-74
2022/05/28 12:50:18;;;;;;;29.00;3.78;;;;;;;;;;5000239;28;20105;-74
2022/05/28 12:52:53;;;;;;;22.98;3.67;;;;;;;;;;4997434;28;20034;-73
2022/05/28 12:55:35;;;;;;;23.88;3.45;;;;;;;;;;4999448;28;20037;-73
2022/05/28 12:58:12;;;;;;;18.48;3.35;;;;;;;;;;4983370;28;20026;-73
2022/05/28 13:00:51;;;;;;;25.45;4.32;;;;;;;;;;4980219;28;20100;-73
2022/05/28 13:03:18;;;;;;;28.75;3.20;;;;;;;;;;4997105;28;20023;-75
2022/05/28 13:06:08;;;;;;;20.15;2.83;;;;;;;;;;4996484;28;20026;-74
2022/05/28 13:08:35;;;;;;;28.17;3.88;;;;;;;;;;4987155;28;20042;-75
2022/05/28 13:11:05;;;;;;;19.50;3.40;;;;;;;;;;4997751;28;20037;-75
2022/05/28 13:13:33;;;;;;;20.13;3.70;;;;;;;;;;5000026;28;20026;-73
2022/05/28 13:16:00;;;;;;;26.50;5.85;;;;;;;;;;4999189;28;20122;-74
2022/05/28 13:18:31;;;;;;;23.90;3.97;;;;;;;;;;4982615;28;20037;-74
2022/05/28 13:21:10;;;;;;;37.80;6.10;;;;;;;;;;4981480;28;20046;-76
2022/05/28 13:23:55;;;;;;;17.60;3.67;;;;;;;;;;4999305;28;20037;-74
2022/05/28 13:26:21;;;;;;;;;;;;;;;;;;4998964;28;20022;-74
2022/05/28 13:28:47;;;;;;;30.90;4.47;;;;;;;;;;4999495;28;19966;-74
2022/05/28 13:31:14;;;;;;;30.30;5.57;;;;;;;;;;4999360;28;20027;-74
2022/05/28 13:33:40;;;;;;;27.63;4.35;;;;;;;;;;4998106;28;20031;-73
2022/05/28 13:36:07;;;;;;;31.05;5.68;;;;;;;;;;5001588;28;20030;-75
2022/05/28 13:38:40;;;;;;;29.30;4.68;;;;;;;;;;4997198;28;20038;-73
2022/05/28 13:41:18;;;;;;;29.17;5.03;;;;;;;;;;4998380;28;20022;-73
2022/05/28 13:43:46;;;;;;;26.88;4.00;;;;;;;;;;4998118;28;20080;-74
2022/05/28 13:46:12;;;;;;;21.45;3.67;;;;;;;;;;4996899;28;20026;-74
2022/05/28 13:48:45;;;;;;;23.30;3.70;;;;;;;;;;4979025;28;20026;-73
2022/05/28 13:51:11;;;;;;;25.30;4.50;;;;;;;;;;4995502;28;20026;-73
2022/05/28 13:53:39;;;;;;;27.65;4.00;;;;;;;;;;4995460;28;20041;-74
2022/05/28 13:56:06;;;;;;;21.83;3.72;;;;;;;;;;4998222;28;20044;-74
2022/05/28 13:58:42;;;;;;;33.47;5.28;;;;;;;;;;4998993;28;20037;-74
2022/05/28 14:01:24;;;;;;;27.00;4.05;;;;;;;;;;4988961;28;20033;-73
2022/05/28 14:03:50;;;;;;;30.38;8.00;;;;;;;;;;4999533;28;20026;-75
2022/05/28 14:06:30;;;;;;;25.83;4.57;;;;;;;;;;5007849;28;20076;-74
2022/05/28 14:09:02;;;;;;;40.72;11.77;;;;;;;;;;4998528;28;20161;-72
2022/05/28 14:11:35;;;;;;;23.23;5.13;;;;;;;;;;4978726;28;20037;-73
2022/05/28 14:14:13;;;;;;;34.22;5.65;;;;;;;;;;4995715;28;20150;-73
2022/05/28 14:16:40;;;;;;;29.50;6.00;;;;;;;;;;4995297;28;20360;-73
2022/05/28 14:19:08;;;;;;;30.70;4.88;;;;;;;;;;4996438;28;20435;-74
2022/05/28 14:21:35;;;;;;;30.83;5.15;;;;;;;;;;4998449;28;20090;-73
2022/05/28 14:24:24;;;;;;;34.67;5.60;;;;;;;;;;4995847;28;20014;-73
2022/05/28 14:26:55;;;;;;;40.63;5.63;;;;;;;;;;4984756;28;20042;-75
2022/05/28 14:29:22;;;;;;;36.83;5.82;;;;;;;;;;4995289;28;20663;-74
2022/05/28 14:31:48;;;;;;;31.83;6.95;;;;;;;;;;4998868;28;20015;-75
2022/05/28 14:34:17;;;;;;;28.70;5.38;;;;;;;;;;5019372;23;20053;-72
2022/05/28 14:36:49;;;;;;;42.90;5.72;;;;;;;;;;4978211;28;20062;-74
2022/05/28 14:39:16;;;;;;;33.03;5.22;;;;;;;;;;4996303;28;20030;-73
2022/05/28 14:41:50;;;;;;;34.88;4.90;;;;;;;;;;4994671;28;20022;-72
2022/05/28 14:44:18;;;;;;;29.43;4.33;;;;;;;;;;4997451;28;20014;-73
2022/05/28 14:46:46;;;;;;;33.95;5.70;;;;;;;;;;4976388;28;20085;-73